createdAt,value
2019-01-08T00:02:11.987Z,101834.51
2019-01-08T00:07:22.191Z,101825.36
2019-01-08T00:12:37.348Z,101823.08
2019-01-08T00:17:45.925Z,101822.78
2019-01-08T00:22:53.861Z,101820.13
2019-01-08T00:28:04.071Z,101806.41
2019-01-08T00:33:12.935Z,101794.84
2019-01-08T00:38:26.404Z,101797.55
2019-01-08T00:43:33.452Z,101798.98
2019-01-08T00:48:41.379Z,101793.09
2019-01-08T00:53:49.236Z,101792.63
2019-01-08T00:58:57.926Z,101785.73
2019-01-08T01:04:03.352Z,101776.73
2019-01-08T01:09:09.936Z,101776.34
2019-01-08T01:14:16.290Z,101772.52
2019-01-08T01:19:22.980Z,101772.13
2019-01-08T01:24:30.370Z,101773.93
2019-01-08T01:29:39.054Z,101773.93
2019-01-08T01:34:45.912Z,101762.74
2019-01-08T01:39:55.452Z,101767.55
2019-01-08T01:45:04.954Z,101759.28
2019-01-08T01:50:13.613Z,101756.78
2019-01-08T01:55:22.434Z,101751.64
2019-01-08T02:00:41.695Z,101750.27
2019-01-08T02:05:51.053Z,101741.13
2019-01-08T02:11:00.127Z,101741.59
2019-01-08T02:16:10.093Z,101736.45
2019-01-08T02:21:20.712Z,101731.95
2019-01-08T02:26:29.092Z,101728.22
2019-01-08T02:31:38.857Z,101721.77
2019-01-08T02:36:51.366Z,101716.30
2019-01-08T02:42:02.590Z,101715.77
2019-01-08T02:47:10.594Z,101706.33
2019-01-08T02:52:23.180Z,101699.67
2019-01-08T02:57:32.837Z,101699.48
2019-01-08T03:02:40.991Z,101692.45
2019-01-08T03:07:53.412Z,101686.23
2019-01-08T03:13:07.726Z,101689.25
2019-01-08T03:18:20.909Z,101679.12
2019-01-08T03:23:34.308Z,101663.47
2019-01-08T03:28:46.249Z,101656.71
2019-01-08T03:33:55.403Z,101638.36
2019-01-08T03:39:07.042Z,101632.77
2019-01-08T03:44:15.432Z,101620.73
2019-01-08T03:49:25.157Z,101620.42
2019-01-08T03:54:33.523Z,101617.66
2019-01-08T03:59:44.162Z,101602.91
2019-01-08T04:04:55.011Z,101578.31
2019-01-08T04:10:06.594Z,101578.31
2019-01-08T04:15:17.315Z,101580.03
2019-01-08T04:20:26.516Z,101576.34
2019-01-08T04:25:37.253Z,101570.83
2019-01-08T04:30:55.699Z,101573.66
2019-01-08T04:36:06.409Z,101573.73
2019-01-08T04:41:17.026Z,101563.55
2019-01-08T04:46:29.478Z,101566.99
2019-01-08T04:51:45.239Z,101561.88
2019-01-08T04:56:57.849Z,101562.83
2019-01-08T05:02:09.472Z,101553.77
2019-01-08T05:07:17.860Z,101537.27
2019-01-08T05:12:26.695Z,101532.43
2019-01-08T05:17:36.597Z,101530.75
2019-01-08T05:22:47.291Z,101525.55
2019-01-08T05:27:55.815Z,101511.12
2019-01-08T05:33:08.296Z,101501.41
2019-01-08T05:38:15.528Z,101511.29
2019-01-08T05:43:24.615Z,101538.55
2019-01-08T05:48:36.994Z,101533.68
2019-01-08T05:53:49.218Z,101523.66
2019-01-08T05:58:59.940Z,101511.23
2019-01-08T06:04:12.438Z,101509.22
2019-01-08T06:10:22.343Z,101498.11
2019-01-08T06:15:29.797Z,101498.16
2019-01-08T06:20:41.290Z,101497.50
2019-01-08T06:25:55.503Z,101497.50
2019-01-08T06:31:14.298Z,101491.37
2019-01-08T06:36:26.251Z,101493.00
2019-01-08T06:41:34.586Z,101503.86
2019-01-08T06:46:45.597Z,101505.54
2019-01-08T06:51:53.863Z,101476.52
2019-01-08T06:57:02.716Z,101481.64
2019-01-08T07:02:09.935Z,101483.94
2019-01-08T07:07:16.600Z,101475.28
2019-01-08T07:12:29.990Z,101470.28
2019-01-08T07:17:44.258Z,101472.35
2019-01-08T07:22:53.399Z,101473.73
2019-01-08T07:28:01.643Z,101471.66
2019-01-08T07:33:10.905Z,101477.02
2019-01-08T07:38:22.404Z,101481.62
2019-01-08T07:43:34.864Z,101490.83
2019-01-08T07:48:44.578Z,101482.72
2019-01-08T07:53:52.130Z,101478.05
2019-01-08T07:59:02.474Z,101486.70
2019-01-08T08:04:16.571Z,101476.67
2019-01-08T08:09:26.895Z,101461.04
2019-01-08T08:14:38.506Z,101459.12
2019-01-08T08:19:52.648Z,101459.12
2019-01-08T08:25:09.608Z,101456.48
2019-01-08T08:30:19.496Z,101430.05
2019-01-08T08:35:31.844Z,101460.70
2019-01-08T08:40:42.206Z,101470.44
2019-01-08T08:45:56.869Z,101480.03
2019-01-08T08:51:06.242Z,101467.84
2019-01-08T08:56:14.803Z,101456.72
2019-01-08T09:01:27.331Z,101456.57
2019-01-08T09:06:38.020Z,101438.27
2019-01-08T09:11:46.831Z,101457.14
2019-01-08T09:16:57.561Z,101470.86
2019-01-08T09:22:08.166Z,101463.72
2019-01-08T09:27:20.579Z,101465.38
2019-01-08T09:32:31.267Z,101467.86
2019-01-08T09:37:41.075Z,101452.05
2019-01-08T09:42:49.365Z,101451.38
2019-01-08T09:48:00.980Z,101470.73
2019-01-08T09:53:11.414Z,101479.36
2019-01-08T09:58:25.731Z,101484.58
2019-01-08T10:03:38.180Z,101485.05
2019-01-08T10:08:48.323Z,101473.75
2019-01-08T10:13:57.765Z,101476.42
2019-01-08T10:19:07.495Z,101471.61
2019-01-08T10:24:15.768Z,101472.80
2019-01-08T10:29:24.113Z,101488.54
2019-01-08T10:34:30.815Z,101473.92
2019-01-08T10:39:39.654Z,101484.32
2019-01-08T10:44:48.529Z,101482.79
2019-01-08T10:49:58.277Z,101468.17
2019-01-08T10:55:12.133Z,101466.19
2019-01-08T11:00:23.636Z,101479.84
2019-01-08T11:05:31.065Z,101469.17
2019-01-08T11:10:40.100Z,101478.57
2019-01-08T11:15:52.514Z,101485.20
2019-01-08T11:21:01.053Z,101503.11
2019-01-08T11:26:08.968Z,101501.80
2019-01-08T11:31:19.940Z,101494.70
2019-01-08T11:36:27.640Z,101494.41
2019-01-08T11:41:38.933Z,101481.39
2019-01-08T11:46:48.857Z,101487.77
2019-01-08T11:51:59.113Z,101482.08
2019-01-08T11:57:09.539Z,101482.80
2019-01-08T12:02:19.296Z,101479.91
2019-01-08T12:07:31.343Z,101479.34
2019-01-08T12:12:47.871Z,101479.46
2019-01-08T12:17:56.072Z,101480.06
2019-01-08T12:23:03.871Z,101454.13
2019-01-08T12:28:11.874Z,101459.73
2019-01-08T12:33:19.008Z,101485.72
2019-01-08T12:38:26.601Z,101491.03
2019-01-08T12:43:36.102Z,101486.97
2019-01-08T12:48:43.045Z,101484.80
2019-01-08T12:53:53.442Z,101477.44
2019-01-08T12:59:00.985Z,101481.61
2019-01-08T13:04:10.476Z,101480.38
2019-01-08T13:09:19.973Z,101479.07
2019-01-08T13:14:28.099Z,101485.33
2019-01-08T13:19:36.002Z,101475.14
2019-01-08T13:24:43.978Z,101480.15
2019-01-08T13:29:50.235Z,101477.05
2019-01-08T13:34:57.049Z,101478.06
2019-01-08T13:40:03.501Z,101481.27
2019-01-08T13:45:14.911Z,101482.38
2019-01-08T13:50:23.553Z,101486.58
2019-01-08T13:55:31.780Z,101484.80
2019-01-08T14:00:40.709Z,101487.94
2019-01-08T14:05:48.687Z,101512.03
2019-01-08T14:10:58.408Z,101519.03
2019-01-08T14:16:07.937Z,101514.72
2019-01-08T14:21:15.418Z,101513.64
2019-01-08T14:26:23.157Z,101519.87
2019-01-08T14:31:32.068Z,101529.48
2019-01-08T14:36:40.707Z,101537.59
2019-01-08T14:41:48.896Z,101528.00
2019-01-08T14:46:57.597Z,101542.92
2019-01-08T14:52:08.133Z,101550.77
2019-01-08T14:57:20.468Z,101553.58
2019-01-08T15:02:29.789Z,101556.77
2019-01-08T15:07:41.253Z,101556.88
2019-01-08T15:12:50.404Z,101552.58
2019-01-08T15:18:02.055Z,101553.80
2019-01-08T15:23:15.683Z,101542.42
2019-01-08T15:28:27.296Z,101547.59
2019-01-08T15:33:37.071Z,101532.73
2019-01-08T15:38:45.867Z,101559.21
2019-01-08T15:43:58.344Z,101559.21
2019-01-08T15:49:09.945Z,101563.02
2019-01-08T15:54:17.348Z,101563.32
2019-01-08T15:59:29.730Z,101572.21
2019-01-08T16:04:42.274Z,101589.94
2019-01-08T16:09:54.692Z,101602.51
2019-01-08T16:15:03.589Z,101597.23
2019-01-08T16:20:13.504Z,101593.75
2019-01-08T16:25:22.964Z,101602.37
2019-01-08T16:30:33.735Z,101611.69
2019-01-08T16:35:46.084Z,101598.25
2019-01-08T16:40:56.120Z,101604.66
2019-01-08T16:46:06.853Z,101599.99
2019-01-08T16:51:17.478Z,101601.79
2019-01-08T16:56:30.893Z,101616.58
2019-01-08T17:01:43.368Z,101613.91
2019-01-08T17:06:56.839Z,101619.28
2019-01-08T17:12:06.126Z,101624.47
2019-01-08T17:17:18.573Z,101626.09
2019-01-08T17:22:26.495Z,101627.94
2019-01-08T17:27:36.518Z,101613.20
2019-01-08T17:32:45.405Z,101620.70
2019-01-08T17:37:55.202Z,101617.75
2019-01-08T17:43:04.966Z,101622.81
2019-01-08T17:48:18.370Z,101604.62
2019-01-08T17:53:26.738Z,101620.28
2019-01-08T17:58:49.572Z,101624.13
2019-01-08T18:03:59.418Z,101622.02
2019-01-08T18:14:43.270Z,101632.38
2019-01-08T18:19:52.434Z,101643.02
2019-01-08T18:24:59.607Z,101635.34
2019-01-08T18:30:10.283Z,101643.17
2019-01-08T18:35:24.516Z,101633.73
2019-01-08T18:40:32.739Z,101635.58
2019-01-08T18:45:43.140Z,101636.01
2019-01-08T18:50:50.742Z,101652.95
2019-01-08T18:55:58.009Z,101651.22
2019-01-08T19:01:07.800Z,101651.27
2019-01-08T19:06:17.987Z,101664.94
2019-01-08T19:11:25.532Z,101662.09
2019-01-08T19:16:34.602Z,101673.17
2019-01-08T19:21:45.309Z,101670.24
2019-01-08T19:26:59.574Z,101668.61
2019-01-08T19:32:09.287Z,101678.23
2019-01-08T19:37:19.010Z,101646.98
2019-01-08T19:42:29.155Z,101646.98
2019-01-08T19:47:40.896Z,101668.20
2019-01-08T19:52:54.355Z,101688.11
2019-01-08T19:58:06.809Z,101716.20
2019-01-08T20:03:16.554Z,101700.07
2019-01-08T20:08:30.583Z,101687.10
2019-01-08T20:13:38.890Z,101683.71
2019-01-08T20:18:49.860Z,101680.35
2019-01-08T20:24:06.393Z,101678.16
2019-01-08T20:29:13.187Z,101680.77
2019-01-08T20:34:26.633Z,101687.13
2019-01-08T20:39:33.827Z,101689.25
2019-01-08T20:44:41.829Z,101693.19
2019-01-08T20:49:51.278Z,101692.75
2019-01-08T20:55:03.391Z,101688.84
2019-01-08T21:00:10.837Z,101686.24
2019-01-08T21:05:19.827Z,101676.80
2019-01-08T21:10:28.949Z,101682.50
2019-01-08T21:15:37.151Z,101682.56
2019-01-08T21:20:45.347Z,101678.20
2019-01-08T21:26:01.635Z,101673.34
2019-01-08T21:31:10.691Z,101691.52
2019-01-08T21:36:19.294Z,101711.87
2019-01-08T21:41:28.855Z,101695.86
2019-01-08T21:46:37.412Z,101683.67
2019-01-08T21:51:45.991Z,101695.86
2019-01-08T21:56:57.580Z,101693.70
2019-01-08T22:02:11.255Z,101693.73
2019-01-08T22:07:19.658Z,101686.85
2019-01-08T22:12:32.102Z,101689.51
2019-01-08T22:17:41.872Z,101685.24
2019-01-08T22:22:53.050Z,101678.77
2019-01-08T22:28:04.295Z,101666.22
2019-01-08T22:33:17.864Z,101657.54
2019-01-08T22:38:28.103Z,101662.69
2019-01-08T22:43:37.193Z,101663.48
2019-01-08T22:48:52.997Z,101665.64
2019-01-08T22:54:06.402Z,101665.22
2019-01-08T22:59:18.404Z,101660.09
2019-01-08T23:04:29.168Z,101657.09
2019-01-08T23:09:39.173Z,101654.91
2019-01-08T23:14:48.932Z,101643.19
2019-01-08T23:20:02.403Z,101639.29
2019-01-08T23:25:15.790Z,101620.66
2019-01-08T23:30:25.479Z,101622.02
2019-01-08T23:35:34.436Z,101638.46
2019-01-08T23:40:45.998Z,101628.54
2019-01-08T23:45:58.552Z,101639.34
2019-01-08T23:51:11.046Z,101640.64
2019-01-08T23:56:23.084Z,101637.61
